sensor_id;sensor_type;location;lat;lon;timestamp;temperature;humidity
18085;DHT22;9169;44.492;11.372;2022-12-18T00:01:56;12.50;64.70
18085;DHT22;9169;44.492;11.372;2022-12-18T00:04:24;12.50;64.60
18085;DHT22;9169;44.492;11.372;2022-12-18T00:06:50;12.50;64.40
18085;DHT22;9169;44.492;11.372;2022-12-18T00:09:17;12.50;64.20
18085;DHT22;9169;44.492;11.372;2022-12-18T00:11:44;12.50;63.90
18085;DHT22;9169;44.492;11.372;2022-12-18T00:14:13;12.40;63.70
18085;DHT22;9169;44.492;11.372;2022-12-18T00:16:42;12.40;63.70
18085;DHT22;9169;44.492;11.372;2022-12-18T00:19:09;12.40;63.70
18085;DHT22;9169;44.492;11.372;2022-12-18T00:21:39;12.40;63.60
18085;DHT22;9169;44.492;11.372;2022-12-18T00:24:06;12.40;63.30
18085;DHT22;9169;44.492;11.372;2022-12-18T00:26:33;12.30;63.10
18085;DHT22;9169;44.492;11.372;2022-12-18T00:29:00;12.30;63.10
18085;DHT22;9169;44.492;11.372;2022-12-18T00:31:29;12.30;63.10
18085;DHT22;9169;44.492;11.372;2022-12-18T00:33:56;12.30;63.10
18085;DHT22;9169;44.492;11.372;2022-12-18T00:36:24;12.30;63.10
18085;DHT22;9169;44.492;11.372;2022-12-18T00:38:52;12.30;62.90
18085;DHT22;9169;44.492;11.372;2022-12-18T00:41:19;12.30;62.70
18085;DHT22;9169;44.492;11.372;2022-12-18T00:44:00;12.30;62.80
18085;DHT22;9169;44.492;11.372;2022-12-18T00:46:26;12.20;62.60
18085;DHT22;9169;44.492;11.372;2022-12-18T00:48:55;12.20;62.50
18085;DHT22;9169;44.492;11.372;2022-12-18T00:51:21;12.20;62.50
18085;DHT22;9169;44.492;11.372;2022-12-18T00:53:48;12.20;62.40
18085;DHT22;9169;44.492;11.372;2022-12-18T00:56:15;12.20;62.40
18085;DHT22;9169;44.492;11.372;2022-12-18T00:58:42;12.20;62.30
18085;DHT22;9169;44.492;11.372;2022-12-18T01:01:08;12.20;62.20
18085;DHT22;9169;44.492;11.372;2022-12-18T01:03:35;12.20;62.10
18085;DHT22;9169;44.492;11.372;2022-12-18T01:06:06;12.10;61.90
18085;DHT22;9169;44.492;11.372;2022-12-18T01:08:33;12.10;61.60
18085;DHT22;9169;44.492;11.372;2022-12-18T01:11:00;12.10;61.70
18085;DHT22;9169;44.492;11.372;2022-12-18T01:13:27;12.10;61.70
18085;DHT22;9169;44.492;11.372;2022-12-18T01:15:54;12.10;61.70
18085;DHT22;9169;44.492;11.372;2022-12-18T01:18:21;12.10;61.70
18085;DHT22;9169;44.492;11.372;2022-12-18T01:20:47;12.10;61.30
18085;DHT22;9169;44.492;11.372;2022-12-18T01:23:15;12.10;61.50
18085;DHT22;9169;44.492;11.372;2022-12-18T01:25:42;12.10;61.30
18085;DHT22;9169;44.492;11.372;2022-12-18T01:28:09;12.00;61.20
18085;DHT22;9169;44.492;11.372;2022-12-18T01:30:36;12.00;61.30
18085;DHT22;9169;44.492;11.372;2022-12-18T01:33:03;12.00;60.80
18085;DHT22;9169;44.492;11.372;2022-12-18T01:35:30;11.90;60.60
18085;DHT22;9169;44.492;11.372;2022-12-18T01:37:57;11.90;60.60
18085;DHT22;9169;44.492;11.372;2022-12-18T01:40:25;11.90;60.90
18085;DHT22;9169;44.492;11.372;2022-12-18T01:42:52;11.90;61.10
18085;DHT22;9169;44.492;11.372;2022-12-18T01:45:22;11.80;60.80
18085;DHT22;9169;44.492;11.372;2022-12-18T01:47:50;11.80;60.70
18085;DHT22;9169;44.492;11.372;2022-12-18T01:50:18;11.70;60.70
18085;DHT22;9169;44.492;11.372;2022-12-18T01:52:46;11.70;60.90
18085;DHT22;9169;44.492;11.372;2022-12-18T01:55:14;11.70;61.00
18085;DHT22;9169;44.492;11.372;2022-12-18T01:57:44;11.70;61.00
18085;DHT22;9169;44.492;11.372;2022-12-18T02:00:12;11.70;61.00
18085;DHT22;9169;44.492;11.372;2022-12-18T02:02:40;11.70;61.00
18085;DHT22;9169;44.492;11.372;2022-12-18T02:05:07;11.70;61.10
18085;DHT22;9169;44.492;11.372;2022-12-18T02:07:37;11.70;61.00
18085;DHT22;9169;44.492;11.372;2022-12-18T02:10:10;11.70;60.80
18085;DHT22;9169;44.492;11.372;2022-12-18T02:12:42;11.60;60.50
18085;DHT22;9169;44.492;11.372;2022-12-18T02:15:12;11.60;60.50
18085;DHT22;9169;44.492;11.372;2022-12-18T02:17:41;11.60;60.50
18085;DHT22;9169;44.492;11.372;2022-12-18T02:20:12;11.60;60.60
18085;DHT22;9169;44.492;11.372;2022-12-18T02:22:43;11.60;60.60
18085;DHT22;9169;44.492;11.372;2022-12-18T02:25:13;11.60;60.50
18085;DHT22;9169;44.492;11.372;2022-12-18T02:27:43;11.60;60.50
18085;DHT22;9169;44.492;11.372;2022-12-18T02:30:12;11.60;60.50
18085;DHT22;9169;44.492;11.372;2022-12-18T02:32:40;11.50;60.40
18085;DHT22;9169;44.492;11.372;2022-12-18T02:35:09;11.50;60.30
18085;DHT22;9169;44.492;11.372;2022-12-18T02:37:37;11.50;60.30
18085;DHT22;9169;44.492;11.372;2022-12-18T02:40:06;11.50;60.20
18085;DHT22;9169;44.492;11.372;2022-12-18T02:42:33;11.50;60.30
18085;DHT22;9169;44.492;11.372;2022-12-18T02:45:02;11.50;60.40
18085;DHT22;9169;44.492;11.372;2022-12-18T02:47:29;11.40;60.20
18085;DHT22;9169;44.492;11.372;2022-12-18T02:49:58;11.40;59.90
18085;DHT22;9169;44.492;11.372;2022-12-18T02:52:30;11.40;60.00
18085;DHT22;9169;44.492;11.372;2022-12-18T02:55:00;11.30;59.40
18085;DHT22;9169;44.492;11.372;2022-12-18T02:57:33;11.30;59.60
18085;DHT22;9169;44.492;11.372;2022-12-18T03:00:03;11.20;59.80
18085;DHT22;9169;44.492;11.372;2022-12-18T03:02:33;11.30;60.00
18085;DHT22;9169;44.492;11.372;2022-12-18T03:05:03;11.20;59.80
18085;DHT22;9169;44.492;11.372;2022-12-18T03:07:34;11.20;60.70
18085;DHT22;9169;44.492;11.372;2022-12-18T03:10:02;11.20;60.00
18085;DHT22;9169;44.492;11.372;2022-12-18T03:12:30;11.20;60.00
18085;DHT22;9169;44.492;11.372;2022-12-18T03:14:58;11.30;60.10
18085;DHT22;9169;44.492;11.372;2022-12-18T03:17:28;11.30;60.10
18085;DHT22;9169;44.492;11.372;2022-12-18T03:19:56;11.30;60.00
18085;DHT22;9169;44.492;11.372;2022-12-18T03:22:24;11.30;60.10
18085;DHT22;9169;44.492;11.372;2022-12-18T03:24:53;11.30;60.10
18085;DHT22;9169;44.492;11.372;2022-12-18T03:27:20;11.30;60.10
18085;DHT22;9169;44.492;11.372;2022-12-18T03:29:49;11.30;60.00
18085;DHT22;9169;44.492;11.372;2022-12-18T03:32:19;11.30;59.90
18085;DHT22;9169;44.492;11.372;2022-12-18T03:34:49;11.30;59.80
18085;DHT22;9169;44.492;11.372;2022-12-18T03:37:17;11.30;59.70
18085;DHT22;9169;44.492;11.372;2022-12-18T03:39:44;11.30;59.80
18085;DHT22;9169;44.492;11.372;2022-12-18T03:42:12;11.30;59.80
18085;DHT22;9169;44.492;11.372;2022-12-18T03:44:42;11.30;59.60
18085;DHT22;9169;44.492;11.372;2022-12-18T03:47:13;11.40;59.70
18085;DHT22;9169;44.492;11.372;2022-12-18T03:49:42;11.30;59.70
18085;DHT22;9169;44.492;11.372;2022-12-18T03:52:15;11.30;59.40
18085;DHT22;9169;44.492;11.372;2022-12-18T03:54:44;11.30;59.50
18085;DHT22;9169;44.492;11.372;2022-12-18T03:57:13;11.30;59.50
18085;DHT22;9169;44.492;11.372;2022-12-18T03:59:41;11.20;59.40
18085;DHT22;9169;44.492;11.372;2022-12-18T04:02:09;11.20;59.50
18085;DHT22;9169;44.492;11.372;2022-12-18T04:04:37;11.20;59.50
18085;DHT22;9169;44.492;11.372;2022-12-18T04:07:04;11.20;59.20
18085;DHT22;9169;44.492;11.372;2022-12-18T04:09:33;11.20;58.70
18085;DHT22;9169;44.492;11.372;2022-12-18T04:12:00;11.10;58.70
18085;DHT22;9169;44.492;11.372;2022-12-18T04:14:27;11.10;59.10
18085;DHT22;9169;44.492;11.372;2022-12-18T04:16:53;11.10;59.00
18085;DHT22;9169;44.492;11.372;2022-12-18T04:19:20;11.10;59.10
18085;DHT22;9169;44.492;11.372;2022-12-18T04:21:47;11.10;59.20
18085;DHT22;9169;44.492;11.372;2022-12-18T04:24:13;11.20;59.30
18085;DHT22;9169;44.492;11.372;2022-12-18T04:26:42;11.20;59.30
18085;DHT22;9169;44.492;11.372;2022-12-18T04:29:08;11.20;59.00
18085;DHT22;9169;44.492;11.372;2022-12-18T04:31:35;11.20;59.00
18085;DHT22;9169;44.492;11.372;2022-12-18T04:34:02;11.20;58.80
18085;DHT22;9169;44.492;11.372;2022-12-18T04:36:29;11.20;58.90
18085;DHT22;9169;44.492;11.372;2022-12-18T04:38:56;11.20;59.00
18085;DHT22;9169;44.492;11.372;2022-12-18T04:41:23;11.20;59.00
18085;DHT22;9169;44.492;11.372;2022-12-18T04:43:51;11.20;59.10
18085;DHT22;9169;44.492;11.372;2022-12-18T04:46:17;11.20;58.60
18085;DHT22;9169;44.492;11.372;2022-12-18T04:48:45;11.10;58.70
18085;DHT22;9169;44.492;11.372;2022-12-18T04:51:12;11.10;58.70
18085;DHT22;9169;44.492;11.372;2022-12-18T04:53:38;11.10;58.40
18085;DHT22;9169;44.492;11.372;2022-12-18T04:56:06;11.10;58.50
18085;DHT22;9169;44.492;11.372;2022-12-18T04:58:34;11.10;58.50
18085;DHT22;9169;44.492;11.372;2022-12-18T05:01:02;11.10;58.50
18085;DHT22;9169;44.492;11.372;2022-12-18T05:03:29;11.10;58.50
18085;DHT22;9169;44.492;11.372;2022-12-18T05:05:56;11.20;58.60
18085;DHT22;9169;44.492;11.372;2022-12-18T05:08:23;11.20;58.10
18085;DHT22;9169;44.492;11.372;2022-12-18T05:10:49;11.10;57.90
18085;DHT22;9169;44.492;11.372;2022-12-18T05:13:16;11.20;58.10
18085;DHT22;9169;44.492;11.372;2022-12-18T05:15:43;11.10;57.70
18085;DHT22;9169;44.492;11.372;2022-12-18T05:18:18;11.10;57.40
18085;DHT22;9169;44.492;11.372;2022-12-18T05:20:45;11.00;56.60
18085;DHT22;9169;44.492;11.372;2022-12-18T05:23:12;11.00;57.20
18085;DHT22;9169;44.492;11.372;2022-12-18T05:25:39;11.00;57.40
18085;DHT22;9169;44.492;11.372;2022-12-18T05:28:06;11.10;57.70
18085;DHT22;9169;44.492;11.372;2022-12-18T05:30:32;11.10;57.80
18085;DHT22;9169;44.492;11.372;2022-12-18T05:32:59;11.10;57.80
18085;DHT22;9169;44.492;11.372;2022-12-18T05:35:27;11.10;57.80
18085;DHT22;9169;44.492;11.372;2022-12-18T05:37:54;11.20;57.80
18085;DHT22;9169;44.492;11.372;2022-12-18T05:40:22;11.20;57.90
18085;DHT22;9169;44.492;11.372;2022-12-18T05:42:49;11.20;57.70
18085;DHT22;9169;44.492;11.372;2022-12-18T05:45:16;11.20;57.70
18085;DHT22;9169;44.492;11.372;2022-12-18T05:47:42;11.20;57.80
18085;DHT22;9169;44.492;11.372;2022-12-18T05:50:09;11.20;57.80
18085;DHT22;9169;44.492;11.372;2022-12-18T05:52:37;11.20;57.60
18085;DHT22;9169;44.492;11.372;2022-12-18T05:55:04;11.20;57.60
18085;DHT22;9169;44.492;11.372;2022-12-18T05:57:31;11.20;57.50
18085;DHT22;9169;44.492;11.372;2022-12-18T05:59:58;11.20;57.20
18085;DHT22;9169;44.492;11.372;2022-12-18T06:02:24;11.10;57.10
18085;DHT22;9169;44.492;11.372;2022-12-18T06:04:51;11.10;57.30
18085;DHT22;9169;44.492;11.372;2022-12-18T06:07:18;11.10;57.30
18085;DHT22;9169;44.492;11.372;2022-12-18T06:09:46;11.20;56.70
18085;DHT22;9169;44.492;11.372;2022-12-18T06:12:14;11.10;56.60
18085;DHT22;9169;44.492;11.372;2022-12-18T06:14:41;11.00;56.60
18085;DHT22;9169;44.492;11.372;2022-12-18T06:17:07;11.00;56.90
18085;DHT22;9169;44.492;11.372;2022-12-18T06:19:34;11.00;56.60
18085;DHT22;9169;44.492;11.372;2022-12-18T06:22:01;11.00;56.70
18085;DHT22;9169;44.492;11.372;2022-12-18T06:24:28;10.90;56.70
18085;DHT22;9169;44.492;11.372;2022-12-18T06:26:56;10.90;56.90
18085;DHT22;9169;44.492;11.372;2022-12-18T06:29:23;10.90;57.00
18085;DHT22;9169;44.492;11.372;2022-12-18T06:31:50;10.90;57.10
18085;DHT22;9169;44.492;11.372;2022-12-18T06:34:16;10.90;57.20
18085;DHT22;9169;44.492;11.372;2022-12-18T06:36:43;10.90;57.00
18085;DHT22;9169;44.492;11.372;2022-12-18T06:39:10;10.90;56.80
18085;DHT22;9169;44.492;11.372;2022-12-18T06:41:37;10.90;56.90
18085;DHT22;9169;44.492;11.372;2022-12-18T06:44:05;10.90;56.90
18085;DHT22;9169;44.492;11.372;2022-12-18T06:46:32;10.90;56.80
18085;DHT22;9169;44.492;11.372;2022-12-18T06:48:58;10.80;56.80
18085;DHT22;9169;44.492;11.372;2022-12-18T06:51:25;10.80;57.00
18085;DHT22;9169;44.492;11.372;2022-12-18T06:53:52;10.80;57.00
18085;DHT22;9169;44.492;11.372;2022-12-18T06:56:19;10.80;56.80
18085;DHT22;9169;44.492;11.372;2022-12-18T06:58:46;10.80;56.90
18085;DHT22;9169;44.492;11.372;2022-12-18T07:01:14;10.70;56.70
18085;DHT22;9169;44.492;11.372;2022-12-18T07:03:41;10.70;56.80
18085;DHT22;9169;44.492;11.372;2022-12-18T07:06:12;10.70;56.70
18085;DHT22;9169;44.492;11.372;2022-12-18T07:08:39;10.60;56.80
18085;DHT22;9169;44.492;11.372;2022-12-18T07:11:06;10.60;57.00
18085;DHT22;9169;44.492;11.372;2022-12-18T07:13:33;10.70;57.10
18085;DHT22;9169;44.492;11.372;2022-12-18T07:16:03;10.70;57.20
18085;DHT22;9169;44.492;11.372;2022-12-18T07:18:31;10.70;57.20
18085;DHT22;9169;44.492;11.372;2022-12-18T07:21:01;10.70;57.00
18085;DHT22;9169;44.492;11.372;2022-12-18T07:23:28;10.70;57.10
18085;DHT22;9169;44.492;11.372;2022-12-18T07:25:55;10.70;57.20
18085;DHT22;9169;44.492;11.372;2022-12-18T07:28:22;10.70;57.20
18085;DHT22;9169;44.492;11.372;2022-12-18T07:30:49;10.70;57.20
18085;DHT22;9169;44.492;11.372;2022-12-18T07:33:16;10.60;57.10
18085;DHT22;9169;44.492;11.372;2022-12-18T07:35:44;10.60;57.20
18085;DHT22;9169;44.492;11.372;2022-12-18T07:38:11;10.60;57.10
18085;DHT22;9169;44.492;11.372;2022-12-18T07:40:37;10.60;57.70
18085;DHT22;9169;44.492;11.372;2022-12-18T07:43:04;10.60;57.30
18085;DHT22;9169;44.492;11.372;2022-12-18T07:45:31;10.60;57.20
18085;DHT22;9169;44.492;11.372;2022-12-18T07:47:57;10.60;57.20
18085;DHT22;9169;44.492;11.372;2022-12-18T07:50:24;10.60;57.30
18085;DHT22;9169;44.492;11.372;2022-12-18T07:52:52;10.60;57.40
18085;DHT22;9169;44.492;11.372;2022-12-18T07:55:19;10.60;57.30
18085;DHT22;9169;44.492;11.372;2022-12-18T07:57:46;10.70;57.50
18085;DHT22;9169;44.492;11.372;2022-12-18T08:00:13;10.70;57.50
18085;DHT22;9169;44.492;11.372;2022-12-18T08:02:40;10.70;57.60
18085;DHT22;9169;44.492;11.372;2022-12-18T08:05:07;10.70;57.60
18085;DHT22;9169;44.492;11.372;2022-12-18T08:07:34;10.70;57.50
18085;DHT22;9169;44.492;11.372;2022-12-18T08:10:02;10.80;58.10
18085;DHT22;9169;44.492;11.372;2022-12-18T08:12:29;10.80;57.50
18085;DHT22;9169;44.492;11.372;2022-12-18T08:14:55;10.80;57.50
18085;DHT22;9169;44.492;11.372;2022-12-18T08:17:22;10.80;57.40
18085;DHT22;9169;44.492;11.372;2022-12-18T08:19:49;10.80;57.40
18085;DHT22;9169;44.492;11.372;2022-12-18T08:22:16;10.80;57.30
18085;DHT22;9169;44.492;11.372;2022-12-18T08:24:43;10.90;57.30
18085;DHT22;9169;44.492;11.372;2022-12-18T08:27:11;10.80;57.20
18085;DHT22;9169;44.492;11.372;2022-12-18T08:29:38;10.80;57.20
18085;DHT22;9169;44.492;11.372;2022-12-18T08:32:04;10.90;57.50
18085;DHT22;9169;44.492;11.372;2022-12-18T08:34:31;10.90;57.50
18085;DHT22;9169;44.492;11.372;2022-12-18T08:36:58;10.90;57.50
18085;DHT22;9169;44.492;11.372;2022-12-18T08:39:25;10.90;57.60
18085;DHT22;9169;44.492;11.372;2022-12-18T08:41:52;10.90;57.60
18085;DHT22;9169;44.492;11.372;2022-12-18T08:44:34;10.90;57.70
18085;DHT22;9169;44.492;11.372;2022-12-18T08:47:03;10.90;57.50
18085;DHT22;9169;44.492;11.372;2022-12-18T08:49:30;11.00;57.80
18085;DHT22;9169;44.492;11.372;2022-12-18T08:51:57;11.00;58.20
18085;DHT22;9169;44.492;11.372;2022-12-18T08:54:24;11.00;58.30
18085;DHT22;9169;44.492;11.372;2022-12-18T08:56:51;11.10;58.60
18085;DHT22;9169;44.492;11.372;2022-12-18T08:59:18;11.20;59.80
18085;DHT22;9169;44.492;11.372;2022-12-18T09:01:47;11.30;59.80
18085;DHT22;9169;44.492;11.372;2022-12-18T09:04:14;11.40;58.30
18085;DHT22;9169;44.492;11.372;2022-12-18T09:06:41;11.30;57.40
18085;DHT22;9169;44.492;11.372;2022-12-18T09:09:08;11.30;56.80
18085;DHT22;9169;44.492;11.372;2022-12-18T09:11:35;11.30;57.30
18085;DHT22;9169;44.492;11.372;2022-12-18T09:14:02;11.30;57.40
18085;DHT22;9169;44.492;11.372;2022-12-18T09:16:29;11.30;57.60
18085;DHT22;9169;44.492;11.372;2022-12-18T09:18:58;11.30;57.60
18085;DHT22;9169;44.492;11.372;2022-12-18T09:21:26;11.30;57.60
18085;DHT22;9169;44.492;11.372;2022-12-18T09:23:54;11.30;57.40
18085;DHT22;9169;44.492;11.372;2022-12-18T09:26:21;11.30;56.90
18085;DHT22;9169;44.492;11.372;2022-12-18T09:28:48;11.30;57.00
18085;DHT22;9169;44.492;11.372;2022-12-18T09:31:16;11.30;56.60
18085;DHT22;9169;44.492;11.372;2022-12-18T09:33:43;11.30;56.90
18085;DHT22;9169;44.492;11.372;2022-12-18T09:36:12;11.40;57.30
18085;DHT22;9169;44.492;11.372;2022-12-18T09:38:39;11.50;57.10
18085;DHT22;9169;44.492;11.372;2022-12-18T09:41:13;11.50;57.40
18085;DHT22;9169;44.492;11.372;2022-12-18T09:43:43;11.60;57.80
18085;DHT22;9169;44.492;11.372;2022-12-18T09:46:11;11.70;57.30
18085;DHT22;9169;44.492;11.372;2022-12-18T09:48:42;11.70;57.30
18085;DHT22;9169;44.492;11.372;2022-12-18T09:51:13;11.80;57.60
18085;DHT22;9169;44.492;11.372;2022-12-18T09:53:44;11.90;58.10
18085;DHT22;9169;44.492;11.372;2022-12-18T09:56:15;11.90;57.30
18085;DHT22;9169;44.492;11.372;2022-12-18T09:58:43;11.90;57.30
18085;DHT22;9169;44.492;11.372;2022-12-18T10:01:12;11.90;57.10
18085;DHT22;9169;44.492;11.372;2022-12-18T10:03:40;11.90;56.80
18085;DHT22;9169;44.492;11.372;2022-12-18T10:06:07;11.90;57.00
18085;DHT22;9169;44.492;11.372;2022-12-18T10:08:40;11.90;57.00
18085;DHT22;9169;44.492;11.372;2022-12-18T10:11:22;11.90;57.10
18085;DHT22;9169;44.492;11.372;2022-12-18T10:13:53;11.90;56.90
18085;DHT22;9169;44.492;11.372;2022-12-18T10:16:24;11.80;56.80
18085;DHT22;9169;44.492;11.372;2022-12-18T10:19:00;11.80;56.50
18085;DHT22;9169;44.492;11.372;2022-12-18T10:21:30;11.70;56.50
18085;DHT22;9169;44.492;11.372;2022-12-18T10:24:01;11.70;56.70
18085;DHT22;9169;44.492;11.372;2022-12-18T10:26:31;11.70;57.00
18085;DHT22;9169;44.492;11.372;2022-12-18T10:28:58;11.80;57.10
18085;DHT22;9169;44.492;11.372;2022-12-18T10:31:25;11.80;56.90
18085;DHT22;9169;44.492;11.372;2022-12-18T10:33:53;11.80;56.60
18085;DHT22;9169;44.492;11.372;2022-12-18T10:36:20;11.70;56.50
18085;DHT22;9169;44.492;11.372;2022-12-18T10:38:47;11.70;56.30
18085;DHT22;9169;44.492;11.372;2022-12-18T10:41:24;11.70;56.30
18085;DHT22;9169;44.492;11.372;2022-12-18T10:44:10;11.70;56.60
18085;DHT22;9169;44.492;11.372;2022-12-18T10:46:37;11.70;56.60
18085;DHT22;9169;44.492;11.372;2022-12-18T10:49:04;11.70;56.90
18085;DHT22;9169;44.492;11.372;2022-12-18T10:51:32;11.70;57.00
18085;DHT22;9169;44.492;11.372;2022-12-18T10:54:00;11.80;57.10
18085;DHT22;9169;44.492;11.372;2022-12-18T10:56:29;11.80;57.10
18085;DHT22;9169;44.492;11.372;2022-12-18T10:58:58;11.80;56.90
18085;DHT22;9169;44.492;11.372;2022-12-18T11:01:25;11.80;56.30
18085;DHT22;9169;44.492;11.372;2022-12-18T11:03:59;11.80;56.60
18085;DHT22;9169;44.492;11.372;2022-12-18T11:06:26;11.80;56.30
18085;DHT22;9169;44.492;11.372;2022-12-18T11:08:57;11.70;56.10
18085;DHT22;9169;44.492;11.372;2022-12-18T11:11:24;11.70;56.30
18085;DHT22;9169;44.492;11.372;2022-12-18T11:13:57;11.70;56.20
18085;DHT22;9169;44.492;11.372;2022-12-18T11:16:25;11.70;56.50
18085;DHT22;9169;44.492;11.372;2022-12-18T11:18:52;11.70;55.80
18085;DHT22;9169;44.492;11.372;2022-12-18T11:21:19;11.70;56.30
18085;DHT22;9169;44.492;11.372;2022-12-18T11:23:47;11.80;56.60
18085;DHT22;9169;44.492;11.372;2022-12-18T11:26:15;11.90;56.90
18085;DHT22;9169;44.492;11.372;2022-12-18T11:28:43;11.80;57.00
18085;DHT22;9169;44.492;11.372;2022-12-18T11:31:19;11.90;57.20
18085;DHT22;9169;44.492;11.372;2022-12-18T11:33:47;11.90;56.40
18085;DHT22;9169;44.492;11.372;2022-12-18T11:36:16;11.90;56.70
18085;DHT22;9169;44.492;11.372;2022-12-18T11:38:43;11.90;57.00
18085;DHT22;9169;44.492;11.372;2022-12-18T11:41:13;12.00;57.10
18085;DHT22;9169;44.492;11.372;2022-12-18T11:43:44;12.00;57.30
18085;DHT22;9169;44.492;11.372;2022-12-18T11:46:14;12.00;57.30
18085;DHT22;9169;44.492;11.372;2022-12-18T11:48:45;12.10;57.50
18085;DHT22;9169;44.492;11.372;2022-12-18T11:51:17;12.10;57.30
18085;DHT22;9169;44.492;11.372;2022-12-18T11:53:46;12.10;56.80
18085;DHT22;9169;44.492;11.372;2022-12-18T11:56:18;12.10;56.80
18085;DHT22;9169;44.492;11.372;2022-12-18T11:58:51;12.10;56.90
18085;DHT22;9169;44.492;11.372;2022-12-18T12:01:30;12.20;56.90
18085;DHT22;9169;44.492;11.372;2022-12-18T12:04:10;12.20;57.10
18085;DHT22;9169;44.492;11.372;2022-12-18T12:06:42;12.20;56.20
18085;DHT22;9169;44.492;11.372;2022-12-18T12:09:14;12.10;55.90
18085;DHT22;9169;44.492;11.372;2022-12-18T12:11:46;12.10;56.50
18085;DHT22;9169;44.492;11.372;2022-12-18T12:14:28;12.10;56.40
18085;DHT22;9169;44.492;11.372;2022-12-18T12:17:00;12.20;56.60
18085;DHT22;9169;44.492;11.372;2022-12-18T12:19:33;12.20;57.00
18085;DHT22;9169;44.492;11.372;2022-12-18T12:22:03;12.20;56.80
18085;DHT22;9169;44.492;11.372;2022-12-18T12:24:36;12.30;57.20
18085;DHT22;9169;44.492;11.372;2022-12-18T12:27:08;12.30;56.90
18085;DHT22;9169;44.492;11.372;2022-12-18T12:29:43;12.30;56.60
18085;DHT22;9169;44.492;11.372;2022-12-18T12:32:17;12.30;56.80
18085;DHT22;9169;44.492;11.372;2022-12-18T12:34:50;12.30;56.90
18085;DHT22;9169;44.492;11.372;2022-12-18T12:37:23;12.30;57.10
18085;DHT22;9169;44.492;11.372;2022-12-18T12:39:52;12.30;56.40
18085;DHT22;9169;44.492;11.372;2022-12-18T12:42:23;12.30;56.80
18085;DHT22;9169;44.492;11.372;2022-12-18T12:45:14;12.40;57.10
18085;DHT22;9169;44.492;11.372;2022-12-18T12:47:41;12.40;56.70
18085;DHT22;9169;44.492;11.372;2022-12-18T12:50:13;12.40;56.40
18085;DHT22;9169;44.492;11.372;2022-12-18T12:52:41;12.40;56.80
18085;DHT22;9169;44.492;11.372;2022-12-18T12:55:17;12.40;56.60
18085;DHT22;9169;44.492;11.372;2022-12-18T12:57:45;12.40;56.90
18085;DHT22;9169;44.492;11.372;2022-12-18T13:00:15;12.40;57.00
18085;DHT22;9169;44.492;11.372;2022-12-18T13:02:44;12.40;57.10
18085;DHT22;9169;44.492;11.372;2022-12-18T13:05:16;12.50;57.10
18085;DHT22;9169;44.492;11.372;2022-12-18T13:07:46;12.50;57.10
18085;DHT22;9169;44.492;11.372;2022-12-18T13:10:22;12.50;57.20
18085;DHT22;9169;44.492;11.372;2022-12-18T13:12:53;12.50;57.40
18085;DHT22;9169;44.492;11.372;2022-12-18T13:15:22;12.50;57.50
18085;DHT22;9169;44.492;11.372;2022-12-18T13:18:01;12.60;57.50
18085;DHT22;9169;44.492;11.372;2022-12-18T13:20:33;12.60;56.70
18085;DHT22;9169;44.492;11.372;2022-12-18T13:23:00;12.60;56.70
18085;DHT22;9169;44.492;11.372;2022-12-18T13:25:28;12.60;56.80
18085;DHT22;9169;44.492;11.372;2022-12-18T13:27:57;12.60;57.00
18085;DHT22;9169;44.492;11.372;2022-12-18T13:30:45;12.60;57.10
18085;DHT22;9169;44.492;11.372;2022-12-18T13:36:02;12.60;57.40
18085;DHT22;9169;44.492;11.372;2022-12-18T13:38:33;12.60;57.60
18085;DHT22;9169;44.492;11.372;2022-12-18T13:41:01;12.60;57.00
18085;DHT22;9169;44.492;11.372;2022-12-18T13:43:29;12.70;57.30
18085;DHT22;9169;44.492;11.372;2022-12-18T13:46:00;12.70;57.90
18085;DHT22;9169;44.492;11.372;2022-12-18T13:48:28;12.90;60.20
18085;DHT22;9169;44.492;11.372;2022-12-18T13:50:57;13.20;62.90
18085;DHT22;9169;44.492;11.372;2022-12-18T13:53:27;13.60;68.00
18085;DHT22;9169;44.492;11.372;2022-12-18T13:55:55;14.10;69.60
18085;DHT22;9169;44.492;11.372;2022-12-18T13:58:22;14.50;70.70
18085;DHT22;9169;44.492;11.372;2022-12-18T14:00:49;14.90;70.50
18085;DHT22;9169;44.492;11.372;2022-12-18T14:03:17;15.10;69.90
18085;DHT22;9169;44.492;11.372;2022-12-18T14:05:45;15.30;63.90
18085;DHT22;9169;44.492;11.372;2022-12-18T14:08:13;15.20;62.80
18085;DHT22;9169;44.492;11.372;2022-12-18T14:10:42;15.30;62.60
18085;DHT22;9169;44.492;11.372;2022-12-18T14:13:10;15.30;62.20
18085;DHT22;9169;44.492;11.372;2022-12-18T14:15:41;15.30;60.70
18085;DHT22;9169;44.492;11.372;2022-12-18T14:18:14;15.20;59.50
18085;DHT22;9169;44.492;11.372;2022-12-18T14:20:44;15.10;58.00
18085;DHT22;9169;44.492;11.372;2022-12-18T14:23:24;15.00;57.90
18085;DHT22;9169;44.492;11.372;2022-12-18T14:25:53;15.00;58.10
18085;DHT22;9169;44.492;11.372;2022-12-18T14:28:20;14.90;57.70
18085;DHT22;9169;44.492;11.372;2022-12-18T14:30:47;14.80;57.20
18085;DHT22;9169;44.492;11.372;2022-12-18T14:33:15;14.80;57.10
18085;DHT22;9169;44.492;11.372;2022-12-18T14:35:51;14.70;56.60
18085;DHT22;9169;44.492;11.372;2022-12-18T14:38:22;14.50;56.50
18085;DHT22;9169;44.492;11.372;2022-12-18T14:40:55;14.40;56.50
18085;DHT22;9169;44.492;11.372;2022-12-18T14:43:22;14.30;56.30
18085;DHT22;9169;44.492;11.372;2022-12-18T14:45:49;14.20;56.30
18085;DHT22;9169;44.492;11.372;2022-12-18T14:48:17;14.20;56.20
18085;DHT22;9169;44.492;11.372;2022-12-18T14:50:45;14.10;56.20
18085;DHT22;9169;44.492;11.372;2022-12-18T14:53:27;14.00;56.00
18085;DHT22;9169;44.492;11.372;2022-12-18T14:55:56;13.90;55.90
18085;DHT22;9169;44.492;11.372;2022-12-18T14:58:23;13.80;56.10
18085;DHT22;9169;44.492;11.372;2022-12-18T15:00:50;13.70;56.00
18085;DHT22;9169;44.492;11.372;2022-12-18T15:03:17;13.60;56.00
18085;DHT22;9169;44.492;11.372;2022-12-18T15:05:45;13.60;56.10
18085;DHT22;9169;44.492;11.372;2022-12-18T15:08:27;13.50;56.20
18085;DHT22;9169;44.492;11.372;2022-12-18T15:10:55;13.50;56.30
18085;DHT22;9169;44.492;11.372;2022-12-18T15:13:23;13.40;56.10
18085;DHT22;9169;44.492;11.372;2022-12-18T15:15:51;13.40;56.20
18085;DHT22;9169;44.492;11.372;2022-12-18T15:18:19;13.30;56.00
18085;DHT22;9169;44.492;11.372;2022-12-18T15:20:48;13.20;56.00
18085;DHT22;9169;44.492;11.372;2022-12-18T15:23:19;13.20;56.10
18085;DHT22;9169;44.492;11.372;2022-12-18T15:25:47;13.10;56.20
18085;DHT22;9169;44.492;11.372;2022-12-18T15:28:19;13.10;56.20
18085;DHT22;9169;44.492;11.372;2022-12-18T15:31:02;13.10;56.30
18085;DHT22;9169;44.492;11.372;2022-12-18T15:33:31;13.10;56.40
18085;DHT22;9169;44.492;11.372;2022-12-18T15:35:58;13.00;56.30
18085;DHT22;9169;44.492;11.372;2022-12-18T15:38:25;13.00;56.30
18085;DHT22;9169;44.492;11.372;2022-12-18T15:40:51;13.00;56.30
18085;DHT22;9169;44.492;11.372;2022-12-18T15:43:19;12.90;56.20